createdAt,value
2019-03-20T00:00:18.179Z,5.00
2019-03-20T00:02:47.291Z,5.00
2019-03-20T00:05:19.243Z,5.00
2019-03-20T00:07:48.731Z,4.80
2019-03-20T00:10:19.145Z,4.70
2019-03-20T00:12:48.372Z,4.70
2019-03-20T00:15:17.151Z,4.80
2019-03-20T00:17:45.833Z,4.80
2019-03-20T00:20:14.427Z,4.80
2019-03-20T00:22:44.063Z,4.80
2019-03-20T00:25:14.275Z,4.80
2019-03-20T00:27:43.620Z,4.80
2019-03-20T00:30:17.281Z,4.70
2019-03-20T00:32:49.045Z,4.70
2019-03-20T00:35:18.316Z,4.70
2019-03-20T00:37:47.518Z,4.80
2019-03-20T00:40:17.223Z,4.80
2019-03-20T00:42:46.708Z,4.80
2019-03-20T00:45:20.638Z,4.80
2019-03-20T00:47:52.258Z,4.80
2019-03-20T00:50:21.968Z,4.70
2019-03-20T00:52:54.386Z,4.70
2019-03-20T00:55:24.063Z,4.70
2019-03-20T00:57:55.585Z,4.80
2019-03-20T01:00:27.144Z,4.80
2019-03-20T01:02:58.342Z,4.80
2019-03-20T01:05:28.063Z,4.80
2019-03-20T01:07:58.007Z,4.70
2019-03-20T01:10:27.904Z,4.70
2019-03-20T01:12:57.453Z,4.60
2019-03-20T01:15:27.191Z,4.50
2019-03-20T01:17:57.382Z,4.50
2019-03-20T01:20:26.767Z,4.60
2019-03-20T01:22:56.663Z,4.50
2019-03-20T01:25:26.223Z,4.50
2019-03-20T01:27:56.788Z,4.50
2019-03-20T01:30:34.466Z,4.50
2019-03-20T01:33:14.015Z,4.30
2019-03-20T01:35:44.295Z,4.40
2019-03-20T01:38:14.258Z,4.30
2019-03-20T01:40:45.586Z,4.20
2019-03-20T01:43:15.713Z,4.20
2019-03-20T01:45:45.608Z,4.20
2019-03-20T01:48:15.044Z,4.10
2019-03-20T01:50:44.185Z,4.10
2019-03-20T01:53:13.407Z,4.10
2019-03-20T01:55:43.090Z,4.10
2019-03-20T01:58:12.910Z,4.10
2019-03-20T02:00:43.323Z,4.00
2019-03-20T02:03:12.854Z,4.00
2019-03-20T02:05:42.016Z,4.00
2019-03-20T02:08:13.281Z,4.00
2019-03-20T02:10:42.423Z,3.90
2019-03-20T02:13:12.955Z,4.00
2019-03-20T02:15:42.811Z,4.00
2019-03-20T02:18:12.555Z,4.00
2019-03-20T02:20:42.460Z,4.00
2019-03-20T02:23:12.695Z,3.90
2019-03-20T02:25:44.228Z,3.90
2019-03-20T02:28:13.780Z,3.90
2019-03-20T02:30:43.316Z,3.90
2019-03-20T02:33:13.495Z,3.90
2019-03-20T02:35:51.237Z,4.00
2019-03-20T02:38:14.271Z,3.90
2019-03-20T02:40:45.922Z,3.90
2019-03-20T02:43:16.868Z,3.90
2019-03-20T02:45:48.302Z,3.80
2019-03-20T02:48:19.476Z,3.80
2019-03-20T02:50:48.552Z,3.80
2019-03-20T02:53:18.539Z,3.80
2019-03-20T02:56:09.012Z,3.80
2019-03-20T02:58:39.292Z,3.80
2019-03-20T03:01:08.497Z,3.80
2019-03-20T03:03:37.684Z,3.80
2019-03-20T03:06:07.701Z,3.80
2019-03-20T03:08:38.591Z,3.80
2019-03-20T03:11:07.976Z,3.70
2019-03-20T03:13:37.764Z,3.60
2019-03-20T03:16:07.755Z,3.60
2019-03-20T03:18:37.989Z,3.70
2019-03-20T03:21:07.650Z,3.60
2019-03-20T03:23:36.649Z,3.60
2019-03-20T03:26:06.454Z,3.60
2019-03-20T03:28:35.619Z,3.50
2019-03-20T03:31:05.748Z,3.50
2019-03-20T03:33:36.188Z,3.60
2019-03-20T03:36:05.387Z,3.60
2019-03-20T03:38:35.223Z,3.60
2019-03-20T03:41:04.340Z,3.70
2019-03-20T03:43:33.657Z,3.70
2019-03-20T03:46:03.212Z,3.50
2019-03-20T03:48:32.914Z,3.50
2019-03-20T03:51:03.204Z,3.50
2019-03-20T03:53:33.490Z,3.50
2019-03-20T03:56:02.777Z,3.50
2019-03-20T03:58:32.901Z,3.50
2019-03-20T04:01:02.504Z,3.50
2019-03-20T04:03:32.205Z,3.40
2019-03-20T04:06:01.861Z,3.40
2019-03-20T04:08:31.838Z,3.40
2019-03-20T04:11:01.044Z,3.40
2019-03-20T04:13:30.168Z,3.30
2019-03-20T04:15:59.674Z,3.30
2019-03-20T04:18:30.041Z,3.30
2019-03-20T04:20:59.192Z,3.40
2019-03-20T04:23:29.228Z,3.40
2019-03-20T04:26:30.735Z,3.40
2019-03-20T04:29:00.534Z,3.40
2019-03-20T04:31:40.691Z,3.30
2019-03-20T04:34:27.430Z,3.30
2019-03-20T04:37:01.303Z,3.20
2019-03-20T04:46:38.035Z,3.20
2019-03-20T04:49:54.266Z,3.20
2019-03-20T04:53:02.967Z,3.30
2019-03-20T04:55:38.831Z,3.20
2019-03-20T04:59:13.011Z,3.10
2019-03-20T05:01:38.788Z,3.10
2019-03-20T05:04:12.798Z,3.20
2019-03-20T05:06:44.842Z,3.10
2019-03-20T05:09:15.281Z,3.10
2019-03-20T05:11:45.398Z,3.10
2019-03-20T05:14:16.039Z,3.10
2019-03-20T05:18:05.313Z,3.00
2019-03-20T05:20:35.697Z,3.10
2019-03-20T05:23:08.438Z,3.20
2019-03-20T05:25:41.362Z,3.10
2019-03-20T05:28:12.247Z,3.10
2019-03-20T05:30:43.031Z,3.00
2019-03-20T05:33:14.711Z,3.00
2019-03-20T05:35:44.484Z,3.00
2019-03-20T05:38:14.583Z,2.90
2019-03-20T05:40:48.282Z,2.90
2019-03-20T05:43:18.022Z,2.90
2019-03-20T05:45:48.484Z,2.90
2019-03-20T05:48:20.408Z,2.90
2019-03-20T05:50:50.047Z,3.00
2019-03-20T05:53:21.580Z,3.00
2019-03-20T05:55:54.371Z,2.90
2019-03-20T05:58:24.586Z,2.90
2019-03-20T06:01:00.818Z,2.90
2019-03-20T06:03:32.815Z,2.90
2019-03-20T06:06:02.053Z,2.90
2019-03-20T06:08:31.475Z,3.00
2019-03-20T06:11:01.341Z,3.10
2019-03-20T06:13:30.646Z,3.10
2019-03-20T06:16:00.625Z,3.10
2019-03-20T06:18:33.614Z,3.10
2019-03-20T06:21:05.510Z,3.20
2019-03-20T06:23:36.513Z,3.20
2019-03-20T06:26:06.233Z,3.30
2019-03-20T06:28:37.043Z,3.40
2019-03-20T06:31:07.213Z,3.40
2019-03-20T06:33:38.130Z,3.50
2019-03-20T06:36:09.784Z,3.50
2019-03-20T06:38:39.676Z,3.50
2019-03-20T06:41:11.485Z,3.60
2019-03-20T06:43:41.509Z,3.70
2019-03-20T06:48:57.914Z,3.70
2019-03-20T06:51:27.724Z,3.70
2019-03-20T06:53:57.261Z,3.70
2019-03-20T06:56:27.467Z,3.70
2019-03-20T07:00:06.125Z,3.70
2019-03-20T07:02:48.910Z,3.80
2019-03-20T07:05:44.102Z,3.90
2019-03-20T07:08:18.812Z,3.90
2019-03-20T07:11:05.640Z,3.80
2019-03-20T07:13:59.433Z,3.80
2019-03-20T07:16:32.077Z,4.00
2019-03-20T07:19:01.319Z,4.00
2019-03-20T07:21:30.616Z,4.10
2019-03-20T07:23:59.986Z,4.10
2019-03-20T07:26:29.908Z,4.10
2019-03-20T07:28:59.948Z,4.10
2019-03-20T07:31:29.747Z,4.20
2019-03-20T07:33:59.008Z,4.30
2019-03-20T07:36:28.602Z,4.50
2019-03-20T07:38:58.123Z,4.60
2019-03-20T07:41:27.579Z,4.70
2019-03-20T07:43:57.842Z,4.90
2019-03-20T07:46:26.720Z,5.20
2019-03-20T07:48:55.661Z,5.70
2019-03-20T07:51:23.926Z,6.20
2019-03-20T07:53:53.641Z,6.70
2019-03-20T07:56:24.355Z,7.20
2019-03-20T07:58:52.516Z,7.50
2019-03-20T08:01:20.949Z,7.60
2019-03-20T08:03:49.725Z,8.20
2019-03-20T08:06:18.904Z,8.50
2019-03-20T08:08:47.413Z,8.60
2019-03-20T08:11:15.685Z,9.00
2019-03-20T08:13:44.411Z,9.00
2019-03-20T08:16:13.563Z,8.40
2019-03-20T08:18:42.402Z,8.80
2019-03-20T08:21:11.641Z,9.30
2019-03-20T08:23:42.709Z,9.40
2019-03-20T08:26:11.329Z,9.90
2019-03-20T08:28:39.558Z,10.50
2019-03-20T08:31:07.808Z,11.00
2019-03-20T08:33:35.930Z,11.30
2019-03-20T08:36:04.541Z,10.90
2019-03-20T08:38:33.460Z,11.30
2019-03-20T08:41:01.616Z,11.40
2019-03-20T08:43:30.275Z,11.90
2019-03-20T08:45:58.774Z,11.40
2019-03-20T08:48:29.883Z,11.20
2019-03-20T08:50:58.433Z,11.40
2019-03-20T08:53:27.459Z,11.70
2019-03-20T08:55:55.754Z,11.90
2019-03-20T08:58:33.221Z,12.10
2019-03-20T09:01:01.877Z,11.90
2019-03-20T09:03:30.385Z,11.20
2019-03-20T09:05:58.603Z,10.30
2019-03-20T09:08:29.767Z,9.90
2019-03-20T09:10:59.754Z,10.50
2019-03-20T09:13:28.285Z,10.50
2019-03-20T09:15:57.490Z,11.20
2019-03-20T09:18:25.935Z,11.50
2019-03-20T09:20:57.358Z,12.00
2019-03-20T09:23:26.252Z,11.80
2019-03-20T09:25:55.316Z,12.00
2019-03-20T09:28:23.758Z,13.00
2019-03-20T09:30:52.486Z,14.40
2019-03-20T09:33:21.582Z,16.10
2019-03-20T09:35:53.221Z,17.60
2019-03-20T09:38:21.780Z,19.20
2019-03-20T09:40:49.994Z,19.10
2019-03-20T09:43:18.694Z,19.50
2019-03-20T09:45:46.723Z,20.20
2019-03-20T09:48:17.795Z,22.40
2019-03-20T09:50:48.705Z,22.60
2019-03-20T09:53:16.936Z,21.80
2019-03-20T09:55:45.547Z,23.30
2019-03-20T09:58:13.929Z,24.20
2019-03-20T10:00:42.075Z,23.80
2019-03-20T10:03:10.983Z,23.90
2019-03-20T10:05:39.522Z,22.90
2019-03-20T10:08:09.365Z,22.90
2019-03-20T10:10:39.113Z,23.20
2019-03-20T10:13:08.144Z,22.80
2019-03-20T10:15:38.237Z,21.60
2019-03-20T10:18:06.939Z,17.70
2019-03-20T10:20:38.012Z,13.70
2019-03-20T10:23:08.618Z,12.10
2019-03-20T10:25:44.471Z,10.70
2019-03-20T10:28:08.634Z,11.50
2019-03-20T10:30:37.355Z,12.10
2019-03-20T10:33:06.125Z,14.00
2019-03-20T10:35:34.713Z,16.00
2019-03-20T10:38:03.245Z,15.10
2019-03-20T10:40:31.878Z,15.00
2019-03-20T10:43:00.684Z,14.20
2019-03-20T10:45:29.899Z,13.60
2019-03-20T10:47:59.642Z,13.40
2019-03-20T10:50:27.756Z,13.20
2019-03-20T10:52:56.296Z,12.40
2019-03-20T10:55:27.857Z,12.10
2019-03-20T10:57:57.264Z,12.10
2019-03-20T11:00:27.066Z,11.90
2019-03-20T11:02:56.732Z,11.80
2019-03-20T11:05:26.369Z,11.50
2019-03-20T11:07:57.081Z,10.90
2019-03-20T11:10:26.996Z,11.30
2019-03-20T11:12:56.859Z,10.90
2019-03-20T11:15:26.554Z,10.80
2019-03-20T11:17:57.210Z,10.70
2019-03-20T11:20:26.612Z,10.60
2019-03-20T11:22:56.601Z,10.60
2019-03-20T11:25:26.340Z,10.70
2019-03-20T11:27:55.920Z,10.50
2019-03-20T11:30:26.716Z,10.20
2019-03-20T11:32:57.560Z,10.00
2019-03-20T11:35:27.594Z,9.90
2019-03-20T11:37:56.861Z,9.80
2019-03-20T11:40:29.826Z,10.10
2019-03-20T11:42:59.652Z,10.00
2019-03-20T11:45:30.760Z,9.80
2019-03-20T11:48:01.087Z,9.80
2019-03-20T11:50:35.578Z,10.00
2019-03-20T11:53:05.391Z,10.00
2019-03-20T11:55:36.813Z,9.80
2019-03-20T11:58:05.750Z,10.10
2019-03-20T12:00:34.318Z,10.10
2019-03-20T12:03:03.290Z,10.00
2019-03-20T12:05:31.770Z,10.00
2019-03-20T12:08:00.380Z,9.90
2019-03-20T12:10:29.491Z,9.80
2019-03-20T12:12:57.751Z,10.00
2019-03-20T12:15:26.628Z,10.30
2019-03-20T12:17:55.171Z,10.20
2019-03-20T12:20:23.721Z,9.90
2019-03-20T12:22:51.885Z,9.50
2019-03-20T12:25:21.744Z,9.70
2019-03-20T12:27:50.386Z,9.90
2019-03-20T12:30:20.243Z,9.50
2019-03-20T12:32:49.772Z,9.40
2019-03-20T12:35:18.134Z,9.60
2019-03-20T12:37:47.777Z,9.70
2019-03-20T12:40:21.957Z,9.70
2019-03-20T12:42:51.830Z,9.70
2019-03-20T12:45:22.892Z,9.60
2019-03-20T12:47:52.133Z,9.60
2019-03-20T12:50:23.169Z,9.70
2019-03-20T12:52:52.611Z,9.70
2019-03-20T12:55:22.086Z,9.80
2019-03-20T12:57:52.058Z,9.90
2019-03-20T13:00:22.809Z,10.10
2019-03-20T13:02:52.319Z,9.80
2019-03-20T13:05:24.808Z,9.60
2019-03-20T13:07:54.372Z,9.30
2019-03-20T13:10:24.738Z,9.50
2019-03-20T13:12:54.282Z,9.40
2019-03-20T13:15:26.178Z,9.40
2019-03-20T13:17:55.725Z,9.60
2019-03-20T13:20:25.181Z,9.70
2019-03-20T13:23:09.833Z,9.70
2019-03-20T13:25:39.780Z,9.90
2019-03-20T13:28:09.822Z,9.80
2019-03-20T13:30:48.913Z,9.60
2019-03-20T13:33:25.790Z,9.40
2019-03-20T13:35:52.660Z,9.50
2019-03-20T13:38:22.439Z,9.20
2019-03-20T13:40:52.404Z,9.30
2019-03-20T13:43:22.241Z,9.30
2019-03-20T13:45:52.067Z,9.20
2019-03-20T13:48:22.724Z,8.90
2019-03-20T13:50:53.735Z,9.20
2019-03-20T13:53:23.364Z,9.30
2019-03-20T13:55:54.864Z,9.10
2019-03-20T13:58:24.439Z,9.00
2019-03-20T14:00:54.376Z,9.10
2019-03-20T14:03:24.550Z,9.50
2019-03-20T14:05:56.223Z,9.70
2019-03-20T14:08:26.934Z,9.70
2019-03-20T14:10:57.110Z,9.90
2019-03-20T14:13:26.258Z,9.80
2019-03-20T14:15:55.562Z,9.70
2019-03-20T14:18:25.849Z,9.80
2019-03-20T14:20:55.457Z,9.80
2019-03-20T14:23:25.561Z,9.40
2019-03-20T14:25:55.888Z,9.20
2019-03-20T14:28:28.459Z,9.10
2019-03-20T14:30:58.407Z,9.20
2019-03-20T14:33:28.349Z,9.30
2019-03-20T14:36:03.924Z,9.40
2019-03-20T14:38:33.612Z,9.40
2019-03-20T14:41:04.347Z,9.50
2019-03-20T14:43:33.575Z,9.60
2019-03-20T14:46:03.079Z,9.70
2019-03-20T14:48:33.400Z,9.80
2019-03-20T14:51:03.673Z,9.60
2019-03-20T14:53:33.623Z,9.20
2019-03-20T14:56:04.009Z,9.30
2019-03-20T14:58:34.346Z,9.30
2019-03-20T15:01:03.848Z,9.50
2019-03-20T15:03:33.413Z,9.50
2019-03-20T15:06:01.648Z,9.40
2019-03-20T15:08:30.202Z,9.60
2019-03-20T15:11:00.343Z,9.70
2019-03-20T15:13:29.728Z,9.60
2019-03-20T15:16:06.564Z,9.40
2019-03-20T15:18:35.895Z,9.30
2019-03-20T15:21:06.211Z,9.30
2019-03-20T15:23:37.298Z,9.40
2019-03-20T15:26:06.662Z,9.50
2019-03-20T15:28:38.465Z,9.60
2019-03-20T15:31:08.479Z,9.50
2019-03-20T15:33:38.398Z,9.50
2019-03-20T15:36:07.927Z,9.40
2019-03-20T15:38:38.667Z,9.40
2019-03-20T15:41:09.848Z,9.30
2019-03-20T15:43:39.471Z,9.20
2019-03-20T15:46:09.139Z,9.30
2019-03-20T15:48:38.806Z,9.10
2019-03-20T15:51:09.639Z,9.10
2019-03-20T15:53:38.911Z,9.20
2019-03-20T15:56:08.917Z,9.10
2019-03-20T15:58:38.493Z,8.90
2019-03-20T16:01:08.093Z,8.80
2019-03-20T16:03:40.189Z,8.70
2019-03-20T16:06:10.992Z,8.70
2019-03-20T16:08:40.612Z,8.70
2019-03-20T16:11:09.832Z,8.80
2019-03-20T16:13:39.850Z,8.80
2019-03-20T16:16:10.063Z,8.90
2019-03-20T16:18:40.121Z,8.90
2019-03-20T16:21:11.266Z,8.90
2019-03-20T16:23:41.256Z,9.10
2019-03-20T16:26:12.101Z,9.00
2019-03-20T16:28:41.836Z,8.90
2019-03-20T16:31:11.433Z,8.70
2019-03-20T16:33:40.835Z,8.70
2019-03-20T16:36:10.662Z,8.60
2019-03-20T16:38:40.630Z,8.60
2019-03-20T16:41:16.803Z,8.60
2019-03-20T16:43:42.064Z,8.50
2019-03-20T16:46:12.577Z,8.60
2019-03-20T16:48:43.401Z,8.60
2019-03-20T16:51:14.231Z,8.60
2019-03-20T16:53:46.727Z,8.50
2019-03-20T16:56:19.582Z,8.60
2019-03-20T16:58:49.399Z,8.70
2019-03-20T17:01:19.354Z,8.50
2019-03-20T17:03:48.883Z,8.50
2019-03-20T17:06:18.757Z,8.50
2019-03-20T17:08:48.177Z,8.50
2019-03-20T17:11:27.503Z,8.60
2019-03-20T17:13:51.177Z,8.60
2019-03-20T17:16:20.826Z,8.50
2019-03-20T17:18:50.659Z,8.40
2019-03-20T17:21:20.187Z,8.30
2019-03-20T17:23:51.287Z,8.30
2019-03-20T17:26:20.578Z,8.30
2019-03-20T17:28:50.649Z,8.20
2019-03-20T17:31:20.532Z,8.20
2019-03-20T17:33:51.713Z,8.10
2019-03-20T17:36:21.725Z,8.10
2019-03-20T17:38:51.501Z,8.10
2019-03-20T17:41:21.168Z,8.10
2019-03-20T17:43:51.109Z,8.00
2019-03-20T17:46:20.590Z,8.00
2019-03-20T17:48:59.716Z,8.00
2019-03-20T17:51:42.734Z,7.90
2019-03-20T17:54:12.238Z,7.80
2019-03-20T17:56:45.322Z,7.80
2019-03-20T17:59:14.802Z,7.80
2019-03-20T18:01:53.960Z,7.80
2019-03-20T18:04:24.190Z,7.80
2019-03-20T18:07:11.846Z,7.70
2019-03-20T18:09:42.238Z,7.80
2019-03-20T18:12:14.497Z,7.80
2019-03-20T18:14:44.338Z,7.70
2019-03-20T18:17:13.957Z,7.60
2019-03-20T18:19:43.854Z,7.50
2019-03-20T18:23:15.311Z,7.50
2019-03-20T18:26:01.278Z,7.50
2019-03-20T18:28:41.385Z,7.50
2019-03-20T18:31:15.496Z,7.50
2019-03-20T18:33:48.559Z,7.60
2019-03-20T18:38:53.768Z,7.60
2019-03-20T18:42:25.118Z,7.60
2019-03-20T18:44:57.575Z,7.50
2019-03-20T18:47:32.783Z,7.40
2019-03-20T18:50:02.816Z,7.30
2019-03-20T18:52:32.454Z,7.30
2019-03-20T18:55:03.362Z,7.40
2019-03-20T18:57:32.969Z,7.60
2019-03-20T19:00:08.724Z,7.50
2019-03-20T19:02:42.674Z,7.40
2019-03-20T19:05:15.364Z,7.60
2019-03-20T19:07:50.341Z,7.70
2019-03-20T19:10:25.897Z,7.60
2019-03-20T19:12:56.107Z,7.40
2019-03-20T19:15:26.201Z,7.30
2019-03-20T19:17:57.850Z,7.20
2019-03-20T19:20:30.941Z,7.20
2019-03-20T19:23:01.022Z,7.40
2019-03-20T19:25:30.459Z,7.40
2019-03-20T19:28:00.562Z,7.40
2019-03-20T19:30:30.239Z,7.40
2019-03-20T19:33:00.836Z,7.50
2019-03-20T19:35:29.569Z,7.50
2019-03-20T19:38:00.005Z,7.60
2019-03-20T19:40:30.296Z,7.40
2019-03-20T19:42:59.754Z,7.40
2019-03-20T19:45:28.287Z,7.20
2019-03-20T19:47:58.479Z,7.20
2019-03-20T19:50:27.908Z,7.30
2019-03-20T19:52:57.347Z,7.30
2019-03-20T19:55:27.125Z,7.10
2019-03-20T19:57:57.530Z,7.00
2019-03-20T20:00:27.326Z,7.00
2019-03-20T20:02:56.968Z,7.00
2019-03-20T20:05:26.829Z,6.90
2019-03-20T20:07:56.936Z,6.90
2019-03-20T20:10:27.498Z,7.10
2019-03-20T20:12:57.401Z,7.20
2019-03-20T20:19:25.384Z,7.20
2019-03-20T20:21:55.275Z,7.10
2019-03-20T20:24:29.394Z,7.00
2019-03-20T20:26:59.296Z,7.20
2019-03-20T20:29:35.581Z,7.20
2019-03-20T20:32:25.953Z,7.00
2019-03-20T20:35:25.913Z,7.10
2019-03-20T20:37:56.462Z,7.10
2019-03-20T20:40:26.401Z,6.90
2019-03-20T20:42:57.294Z,7.00
2019-03-20T20:45:29.553Z,7.10
2019-03-20T20:47:59.542Z,6.90
2019-03-20T20:50:29.523Z,6.90
2019-03-20T20:52:59.724Z,7.00
2019-03-20T20:55:32.052Z,6.80
2019-03-20T21:06:16.351Z,6.90
2019-03-20T21:17:22.555Z,6.80
2019-03-20T21:19:53.966Z,6.60
2019-03-20T21:23:06.227Z,6.60
2019-03-20T21:25:37.981Z,6.50
2019-03-20T21:28:49.805Z,6.40
2019-03-20T21:31:59.447Z,6.40
2019-03-20T21:35:17.750Z,6.40
2019-03-20T21:38:21.611Z,6.40
2019-03-20T21:42:04.697Z,6.40
2019-03-20T21:45:10.897Z,6.20
2019-03-20T21:47:44.260Z,6.10
2019-03-20T21:51:06.660Z,6.10
2019-03-20T21:54:19.628Z,6.00
2019-03-20T21:57:15.269Z,6.10
2019-03-20T22:00:25.146Z,6.00
2019-03-20T22:02:55.309Z,6.00
2019-03-20T22:05:56.004Z,6.00
2019-03-20T22:08:27.306Z,5.80
2019-03-20T22:11:49.680Z,5.90
2019-03-20T22:14:20.925Z,6.00
2019-03-20T22:17:50.574Z,6.00
2019-03-20T22:20:38.964Z,5.90
2019-03-20T22:23:44.512Z,5.90
2019-03-20T22:26:38.366Z,6.00
2019-03-20T22:29:27.064Z,6.00
2019-03-20T22:32:56.914Z,5.90
2019-03-20T22:35:50.686Z,6.00
2019-03-20T22:38:45.321Z,5.80
2019-03-20T22:41:47.631Z,5.80
2019-03-20T22:45:03.272Z,5.80
2019-03-20T22:48:04.210Z,5.70
2019-03-20T22:50:57.896Z,5.70
2019-03-20T22:54:07.699Z,5.60
2019-03-20T22:56:58.060Z,5.60
2019-03-20T22:59:29.350Z,5.60
2019-03-20T23:02:07.143Z,5.50
2019-03-20T23:08:26.019Z,5.30
2019-03-20T23:11:00.365Z,5.50
2019-03-20T23:13:41.611Z,5.60
2019-03-20T23:16:13.446Z,5.60
2019-03-20T23:18:44.330Z,5.40
2019-03-20T23:21:15.391Z,5.30
2019-03-20T23:23:45.830Z,5.30
2019-03-20T23:26:28.841Z,5.30
2019-03-20T23:28:58.628Z,5.40
2019-03-20T23:31:28.818Z,5.50
2019-03-20T23:33:58.994Z,5.50
2019-03-20T23:36:33.260Z,5.50
2019-03-20T23:39:03.992Z,5.50
2019-03-20T23:41:34.164Z,5.50
2019-03-20T23:44:04.211Z,5.30
2019-03-20T23:46:34.645Z,5.30
2019-03-20T23:49:08.803Z,5.30
2019-03-20T23:51:39.703Z,5.20
2019-03-20T23:54:10.254Z,5.20
2019-03-20T23:56:40.368Z,5.00
2019-03-20T23:59:11.440Z,5.10
